DAL818 KPHX-KDFW
Flight info
| Callsign | DAL818 |
|---|---|
| Flight time | N/A |
| Altitude | 35000 |
| Route | BROAK1 MAXXO TXO TURKI VKTRY2 |
| Aircraft | A21N/M-SADE2E3GHIJ4J7M3P2RWXYZ/LB1D1 |
Departure
| Time | 2026-05-04 04:47 |
|---|---|
| Airport | Phoenix Sky Harbor International Airport (KPHX) |
Arrival
| Time | N/A |
|---|---|
| Airport | Dallas Fort Worth International Airport (KDFW) |
| Time | Latitude | Longitude | Altitude | Speed | Heading |
|---|---|---|---|---|---|
| 2026-05-04 04:09 | 33.43381 | -112.01082 | 1130 ft | 0 kts | 347° |
| 2026-05-04 04:30 | 33.43380 | -112.01081 | 1130 ft | 2 kts | 347° |
| 2026-05-04 04:30 | 33.43356 | -112.01075 | 1131 ft | 4 kts | 352° |
| 2026-05-04 04:30 | 33.43329 | -112.01073 | 1131 ft | 4 kts | 1° |
| 2026-05-04 04:31 | 33.43303 | -112.01077 | 1133 ft | 4 kts | 24° |
| 2026-05-04 04:31 | 33.43288 | -112.01093 | 1135 ft | 3 kts | 85° |
| 2026-05-04 04:31 | 33.43287 | -112.01102 | 1134 ft | 0 kts | 90° |
| 2026-05-04 04:41 | 33.43287 | -112.01095 | 1130 ft | 2 kts | 90° |
| 2026-05-04 04:41 | 33.43287 | -112.01066 | 1131 ft | 5 kts | 90° |
| 2026-05-04 04:41 | 33.43278 | -112.01016 | 1132 ft | 8 kts | 136° |
| 2026-05-04 04:41 | 33.43222 | -112.00974 | 1133 ft | 11 kts | 131° |
| 2026-05-04 04:42 | 33.43213 | -112.00871 | 1134 ft | 14 kts | 88° |
| 2026-05-04 04:42 | 33.43215 | -112.00742 | 1136 ft | 17 kts | 90° |
| 2026-05-04 04:42 | 33.43214 | -112.00592 | 1136 ft | 19 kts | 90° |
| 2026-05-04 04:42 | 33.43214 | -112.00423 | 1136 ft | 21 kts | 90° |
| 2026-05-04 04:43 | 33.43214 | -112.00240 | 1136 ft | 23 kts | 90° |
| 2026-05-04 04:43 | 33.43215 | -112.00044 | 1135 ft | 24 kts | 90° |
| 2026-05-04 04:43 | 33.43215 | -111.99839 | 1133 ft | 25 kts | 90° |
| 2026-05-04 04:43 | 33.43216 | -111.99622 | 1136 ft | 27 kts | 90° |
| 2026-05-04 04:44 | 33.43215 | -111.99417 | 1136 ft | 17 kts | 91° |
| 2026-05-04 04:44 | 33.43206 | -111.99350 | 1134 ft | 2 kts | 149° |
| 2026-05-04 04:44 | 33.43205 | -111.99350 | 1134 ft | 0 kts | 152° |
| 2026-05-04 04:47 | 33.43104 | -112.01074 | 1134 ft | 143 kts | 270° |
| 2026-05-04 04:47 | 33.43127 | -112.02822 | 1550 ft | 159 kts | 270° |
| 2026-05-04 04:47 | 33.43175 | -112.04135 | 2096 ft | 153 kts | 268° |
| 2026-05-04 04:47 | 33.43204 | -112.05413 | 2616 ft | 160 kts | 265° |
| 2026-05-04 04:48 | 33.43048 | -112.06778 | 2971 ft | 173 kts | 245° |
| 2026-05-04 04:49 | 33.41156 | -112.12725 | 4620 ft | 247 kts | 248° |
| 2026-05-04 04:49 | 33.40551 | -112.14682 | 5329 ft | 254 kts | 244° |
| 2026-05-04 04:49 | 33.39630 | -112.16488 | 6121 ft | 256 kts | 225° |
| 2026-05-04 04:49 | 33.38181 | -112.17714 | 6870 ft | 259 kts | 202° |
| 2026-05-04 04:50 | 33.36402 | -112.18113 | 7639 ft | 265 kts | 179° |
| 2026-05-04 04:50 | 33.34575 | -112.17674 | 8451 ft | 270 kts | 165° |
| 2026-05-04 04:50 | 33.32776 | -112.16978 | 9275 ft | 274 kts | 164° |
| 2026-05-04 04:50 | 33.30975 | -112.16281 | 10010 ft | 277 kts | 164° |
| 2026-05-04 04:51 | 33.29138 | -112.15382 | 10448 ft | 296 kts | 153° |
| 2026-05-04 04:51 | 33.27471 | -112.13781 | 10794 ft | 318 kts | 139° |
| 2026-05-04 04:51 | 33.25955 | -112.11788 | 11322 ft | 331 kts | 130° |
| 2026-05-04 04:51 | 33.24826 | -112.09342 | 12017 ft | 341 kts | 116° |
| 2026-05-04 04:52 | 33.24349 | -112.06521 | 12700 ft | 355 kts | 94° |
| 2026-05-04 04:52 | 33.24584 | -112.03550 | 13411 ft | 363 kts | 84° |
| 2026-05-04 04:52 | 33.24997 | -112.00544 | 14060 ft | 369 kts | 83° |
| 2026-05-04 04:52 | 33.25407 | -111.97493 | 14676 ft | 374 kts | 84° |
| 2026-05-04 04:53 | 33.25830 | -111.94395 | 15286 ft | 381 kts | 80° |
| 2026-05-04 04:53 | 33.26708 | -111.91377 | 15873 ft | 389 kts | 65° |
| 2026-05-04 04:53 | 33.27945 | -111.88525 | 16480 ft | 395 kts | 62° |
| 2026-05-04 04:53 | 33.29262 | -111.85610 | 17077 ft | 400 kts | 62° |
| 2026-05-04 04:54 | 33.30587 | -111.82658 | 17697 ft | 405 kts | 62° |
| 2026-05-04 04:54 | 33.31917 | -111.79662 | 18280 ft | 411 kts | 62° |
| 2026-05-04 04:54 | 33.33248 | -111.76610 | 18818 ft | 415 kts | 62° |
| 2026-05-04 04:54 | 33.34585 | -111.73535 | 19359 ft | 420 kts | 62° |
| 2026-05-04 04:55 | 33.35948 | -111.70410 | 19877 ft | 424 kts | 62° |
| 2026-05-04 04:55 | 33.37316 | -111.67267 | 20387 ft | 428 kts | 61° |
| 2026-05-04 04:55 | 33.38688 | -111.64125 | 20886 ft | 432 kts | 61° |
| 2026-05-04 04:55 | 33.40080 | -111.60917 | 21386 ft | 436 kts | 61° |
| 2026-05-04 04:56 | 33.41488 | -111.57677 | 21869 ft | 441 kts | 60° |
| 2026-05-04 04:56 | 33.42857 | -111.54364 | 22245 ft | 446 kts | 65° |
| 2026-05-04 04:56 | 33.43998 | -111.50886 | 22729 ft | 450 kts | 68° |
| 2026-05-04 04:56 | 33.45096 | -111.47364 | 23202 ft | 454 kts | 68° |
| 2026-05-04 04:57 | 33.46207 | -111.43799 | 23608 ft | 459 kts | 68° |
| 2026-05-04 04:57 | 33.47330 | -111.40208 | 23984 ft | 462 kts | 68° |
| 2026-05-04 04:57 | 33.48464 | -111.36590 | 24339 ft | 466 kts | 68° |
| 2026-05-04 04:57 | 33.49611 | -111.32936 | 24683 ft | 470 kts | 67° |
| 2026-05-04 04:58 | 33.50777 | -111.29254 | 25041 ft | 474 kts | 67° |
| 2026-05-04 04:58 | 33.51949 | -111.25541 | 25402 ft | 479 kts | 67° |
| 2026-05-04 04:58 | 33.53111 | -111.21787 | 25752 ft | 482 kts | 68° |
| 2026-05-04 04:58 | 33.54175 | -111.18022 | 26087 ft | 485 kts | 69° |
| 2026-05-04 04:59 | 33.55268 | -111.14124 | 26403 ft | 488 kts | 69° |
| 2026-05-04 04:59 | 33.56331 | -111.10305 | 26727 ft | 491 kts | 69° |
| 2026-05-04 04:59 | 33.57418 | -111.06412 | 27065 ft | 493 kts | 69° |
| 2026-05-04 04:59 | 33.58509 | -111.02492 | 27361 ft | 497 kts | 69° |
| 2026-05-04 05:00 | 33.59600 | -110.98547 | 27666 ft | 500 kts | 69° |
| 2026-05-04 05:00 | 33.60705 | -110.94571 | 27967 ft | 504 kts | 69° |
| 2026-05-04 05:00 | 33.62935 | -110.86545 | 28549 ft | 510 kts | 68° |
| 2026-05-04 05:01 | 33.64063 | -110.82493 | 28820 ft | 513 kts | 68° |
| 2026-05-04 05:01 | 33.65200 | -110.78412 | 29112 ft | 516 kts | 68° |
| 2026-05-04 05:01 | 33.66326 | -110.74368 | 29415 ft | 519 kts | 68° |
| 2026-05-04 05:01 | 33.67471 | -110.70234 | 29716 ft | 522 kts | 68° |
| 2026-05-04 05:02 | 33.68616 | -110.66083 | 30011 ft | 523 kts | 68° |
| 2026-05-04 05:02 | 33.69760 | -110.61920 | 30202 ft | 527 kts | 68° |
| 2026-05-04 05:02 | 33.70915 | -110.57709 | 30413 ft | 531 kts | 68° |
| 2026-05-04 05:02 | 33.72073 | -110.53488 | 30602 ft | 534 kts | 68° |
| 2026-05-04 05:03 | 33.73238 | -110.49241 | 30808 ft | 537 kts | 68° |
| 2026-05-04 05:03 | 33.74414 | -110.44973 | 31052 ft | 539 kts | 67° |
| 2026-05-04 05:04 | 33.77928 | -110.32127 | 31766 ft | 543 kts | 67° |
| 2026-05-04 05:04 | 33.79108 | -110.27809 | 32084 ft | 543 kts | 67° |
| 2026-05-04 05:04 | 33.80285 | -110.23489 | 32384 ft | 543 kts | 67° |
| 2026-05-04 05:06 | 33.88514 | -109.93223 | 34157 ft | 544 kts | 66° |
| 2026-05-04 05:06 | 33.89679 | -109.88878 | 34316 ft | 546 kts | 66° |
| 2026-05-04 05:06 | 33.90845 | -109.84528 | 34495 ft | 547 kts | 66° |
| 2026-05-04 05:07 | 33.92019 | -109.80163 | 34666 ft | 548 kts | 66° |
| 2026-05-04 05:07 | 33.93184 | -109.75795 | 34879 ft | 548 kts | 66° |
| 2026-05-04 05:07 | 33.94347 | -109.71440 | 34929 ft | 546 kts | 66° |
| 2026-05-04 05:09 | 34.03592 | -109.36622 | 35160 ft | 545 kts | 66° |
| 2026-05-04 05:09 | 34.04741 | -109.32259 | 35162 ft | 546 kts | 67° |
| 2026-05-04 05:10 | 34.07000 | -109.23568 | 35175 ft | 546 kts | 67° |
| 2026-05-04 05:10 | 34.09287 | -109.14836 | 35122 ft | 546 kts | 66° |
| 2026-05-04 05:11 | 34.11579 | -109.06079 | 35063 ft | 547 kts | 66° |
| 2026-05-04 05:11 | 34.13859 | -108.97319 | 34993 ft | 547 kts | 66° |
| 2026-05-04 05:12 | 34.16137 | -108.88546 | 34923 ft | 547 kts | 66° |
| 2026-05-04 05:12 | 34.18383 | -108.79832 | 34904 ft | 547 kts | 66° |
| 2026-05-04 05:13 | 34.20647 | -108.71077 | 34899 ft | 545 kts | 66° |
| 2026-05-04 05:13 | 34.22905 | -108.62338 | 34905 ft | 545 kts | 66° |
| 2026-05-04 05:14 | 34.25145 | -108.53591 | 34897 ft | 545 kts | 66° |
| 2026-05-04 05:14 | 34.27360 | -108.44822 | 34896 ft | 545 kts | 66° |
| 2026-05-04 05:15 | 34.29605 | -108.36047 | 34890 ft | 547 kts | 66° |
| 2026-05-04 05:15 | 34.31845 | -108.27253 | 34899 ft | 547 kts | 66° |
| 2026-05-04 05:16 | 34.34074 | -108.18441 | 34899 ft | 548 kts | 66° |
| 2026-05-04 05:16 | 34.36283 | -108.09672 | 34892 ft | 548 kts | 66° |
| 2026-05-04 05:17 | 34.38262 | -108.00752 | 34889 ft | 555 kts | 77° |
| 2026-05-04 05:17 | 34.38599 | -107.91349 | 34887 ft | 560 kts | 87° |
| 2026-05-04 05:18 | 34.38638 | -107.81912 | 34897 ft | 560 kts | 87° |
| 2026-05-04 05:18 | 34.38723 | -107.72490 | 34907 ft | 560 kts | 86° |
| 2026-05-04 05:19 | 34.38819 | -107.63081 | 34901 ft | 557 kts | 86° |
| 2026-05-04 05:19 | 34.38907 | -107.53698 | 34893 ft | 558 kts | 86° |
| 2026-05-04 05:20 | 34.38984 | -107.44304 | 34898 ft | 558 kts | 86° |
| 2026-05-04 05:20 | 34.39053 | -107.34953 | 34911 ft | 556 kts | 86° |
| 2026-05-04 05:21 | 34.39140 | -107.25604 | 34895 ft | 555 kts | 86° |
| 2026-05-04 05:21 | 34.39201 | -107.16240 | 34893 ft | 556 kts | 86° |
| 2026-05-04 05:22 | 34.39246 | -107.06878 | 34898 ft | 556 kts | 86° |
| 2026-05-04 05:22 | 34.39299 | -106.97522 | 34897 ft | 554 kts | 87° |
| 2026-05-04 05:23 | 34.39337 | -106.88261 | 34900 ft | 554 kts | 87° |
| 2026-05-04 05:23 | 34.39367 | -106.78941 | 34904 ft | 554 kts | 87° |
| 2026-05-04 05:24 | 34.39410 | -106.69614 | 34932 ft | 553 kts | 85° |
| 2026-05-04 05:24 | 34.39754 | -106.60333 | 34932 ft | 551 kts | 84° |
| 2026-05-04 05:25 | 34.40126 | -106.51073 | 34932 ft | 550 kts | 84° |
| 2026-05-04 05:25 | 34.40499 | -106.41858 | 34946 ft | 550 kts | 84° |
| 2026-05-04 05:26 | 34.40858 | -106.32599 | 34951 ft | 550 kts | 84° |
| 2026-05-04 05:26 | 34.41209 | -106.23369 | 34953 ft | 548 kts | 84° |
| 2026-05-04 05:28 | 34.42580 | -105.86498 | 34980 ft | 546 kts | 84° |
| 2026-05-04 05:29 | 34.42902 | -105.77302 | 34977 ft | 546 kts | 84° |
| 2026-05-04 05:29 | 34.43207 | -105.68108 | 34979 ft | 546 kts | 84° |
| 2026-05-04 05:31 | 34.44384 | -105.31645 | 34940 ft | 541 kts | 84° |
| 2026-05-04 05:32 | 34.44666 | -105.22542 | 34951 ft | 539 kts | 84° |
| 2026-05-04 05:33 | 34.45068 | -105.08916 | 34919 ft | 539 kts | 85° |
| 2026-05-04 05:33 | 34.45318 | -104.99895 | 34899 ft | 539 kts | 85° |
| 2026-05-04 05:34 | 34.45568 | -104.90804 | 34891 ft | 539 kts | 85° |
| 2026-05-04 05:34 | 34.45809 | -104.81725 | 34881 ft | 538 kts | 85° |
| 2026-05-04 05:35 | 34.46041 | -104.72660 | 34880 ft | 538 kts | 85° |
| 2026-05-04 05:35 | 34.46278 | -104.63586 | 34864 ft | 538 kts | 85° |
| 2026-05-04 05:36 | 34.46471 | -104.56051 | 34867 ft | 539 kts | 85° |
| 2026-05-04 05:36 | 34.46688 | -104.46976 | 34855 ft | 539 kts | 85° |
| 2026-05-04 05:37 | 34.46911 | -104.37907 | 34857 ft | 538 kts | 85° |
| 2026-05-04 05:37 | 34.47116 | -104.28839 | 34844 ft | 538 kts | 85° |
| 2026-05-04 05:38 | 34.47408 | -104.15305 | 34829 ft | 535 kts | 85° |
| 2026-05-04 05:38 | 34.47592 | -104.06288 | 34822 ft | 535 kts | 85° |
| 2026-05-04 05:39 | 34.47870 | -103.92766 | 34819 ft | 535 kts | 85° |
| 2026-05-04 05:40 | 34.48118 | -103.79269 | 34826 ft | 530 kts | 86° |
| 2026-05-04 05:40 | 34.48280 | -103.70325 | 34825 ft | 530 kts | 85° |
| 2026-05-04 05:41 | 34.48427 | -103.61380 | 34843 ft | 531 kts | 86° |
| 2026-05-04 05:41 | 34.48579 | -103.52424 | 34835 ft | 533 kts | 85° |
| 2026-05-04 05:42 | 34.48726 | -103.43496 | 34868 ft | 532 kts | 85° |
| 2026-05-04 05:42 | 34.48857 | -103.34523 | 34901 ft | 532 kts | 85° |
| 2026-05-04 05:43 | 34.48987 | -103.25550 | 34899 ft | 532 kts | 85° |
| 2026-05-04 05:45 | 34.49436 | -102.89796 | 34954 ft | 530 kts | 86° |
| 2026-05-04 05:47 | 34.46436 | -102.54217 | 34930 ft | 530 kts | 95° |
| 2026-05-04 05:47 | 34.45520 | -102.45403 | 34922 ft | 530 kts | 95° |
| 2026-05-04 05:48 | 34.44588 | -102.36548 | 34929 ft | 528 kts | 95° |
| 2026-05-04 05:48 | 34.43650 | -102.27744 | 34915 ft | 527 kts | 96° |
| 2026-05-04 05:49 | 34.42704 | -102.18935 | 34918 ft | 527 kts | 96° |
| 2026-05-04 05:49 | 34.41758 | -102.10136 | 34907 ft | 527 kts | 96° |
| 2026-05-04 05:51 | 34.37927 | -101.75029 | 34940 ft | 527 kts | 96° |
| 2026-05-04 05:52 | 34.36945 | -101.66223 | 34966 ft | 526 kts | 96° |
| 2026-05-04 05:52 | 34.35971 | -101.57532 | 34944 ft | 524 kts | 96° |
| 2026-05-04 05:54 | 34.31991 | -101.22600 | 34879 ft | 522 kts | 96° |
| 2026-05-04 05:55 | 34.30989 | -101.13890 | 34884 ft | 523 kts | 96° |
| 2026-05-04 05:55 | 34.29972 | -101.05179 | 34888 ft | 523 kts | 96° |
| 2026-05-04 05:56 | 34.28956 | -100.96468 | 34884 ft | 522 kts | 96° |
| 2026-05-04 05:56 | 34.27932 | -100.87829 | 34881 ft | 523 kts | 97° |
| 2026-05-04 05:57 | 34.26902 | -100.79129 | 34882 ft | 523 kts | 96° |
| 2026-05-04 05:57 | 34.25863 | -100.70426 | 34853 ft | 524 kts | 97° |
| 2026-05-04 05:58 | 34.24814 | -100.61699 | 34882 ft | 525 kts | 97° |
| 2026-05-04 05:58 | 34.23765 | -100.52951 | 34891 ft | 523 kts | 97° |
| 2026-05-04 05:59 | 34.22712 | -100.44272 | 34892 ft | 522 kts | 97° |
| 2026-05-04 05:59 | 34.21653 | -100.35644 | 34893 ft | 522 kts | 97° |
| 2026-05-04 06:00 | 34.20565 | -100.26971 | 34929 ft | 523 kts | 99° |
| 2026-05-04 06:00 | 34.19616 | -100.22725 | 34930 ft | 523 kts | 110° |
| 2026-05-04 06:00 | 34.18380 | -100.18599 | 34933 ft | 522 kts | 111° |
| 2026-05-04 06:01 | 34.15870 | -100.10395 | 34916 ft | 520 kts | 111° |
| 2026-05-04 06:03 | 34.05912 | -99.77592 | 34910 ft | 523 kts | 111° |
| 2026-05-04 06:05 | 33.94536 | -99.40579 | 34927 ft | 522 kts | 111° |
| 2026-05-04 06:06 | 33.91992 | -99.32442 | 34921 ft | 522 kts | 111° |
| 2026-05-04 06:06 | 33.89441 | -99.24246 | 34917 ft | 522 kts | 111° |
| 2026-05-04 06:07 | 33.86883 | -99.16058 | 34902 ft | 524 kts | 111° |
| 2026-05-04 06:07 | 33.84299 | -99.07821 | 34933 ft | 525 kts | 111° |
| 2026-05-04 06:08 | 33.81708 | -98.99615 | 34933 ft | 524 kts | 111° |
| 2026-05-04 06:08 | 33.79141 | -98.91457 | 34945 ft | 524 kts | 111° |
| 2026-05-04 06:09 | 33.76543 | -98.83246 | 34964 ft | 524 kts | 112° |
| 2026-05-04 06:11 | 33.66152 | -98.50663 | 34970 ft | 522 kts | 111° |
| 2026-05-04 06:13 | 33.55737 | -98.18012 | 34990 ft | 524 kts | 112° |
| 2026-05-04 06:14 | 33.46516 | -97.89504 | 35018 ft | 523 kts | 112° |
| 2026-05-04 06:15 | 33.43922 | -97.81433 | 35016 ft | 523 kts | 112° |
| 2026-05-04 06:15 | 33.41295 | -97.73269 | 35032 ft | 526 kts | 112° |
| 2026-05-04 06:16 | 33.38640 | -97.65097 | 35044 ft | 526 kts | 113° |
| 2026-05-04 06:16 | 33.36948 | -97.61238 | 35036 ft | 522 kts | 128° |
| 2026-05-04 06:16 | 33.34758 | -97.57778 | 35063 ft | 519 kts | 133° |
| 2026-05-04 06:17 | 33.30285 | -97.51029 | 35052 ft | 518 kts | 131° |
| 2026-05-04 06:17 | 33.26274 | -97.43859 | 35030 ft | 524 kts | 114° |
| 2026-05-04 06:18 | 33.25237 | -97.39750 | 35037 ft | 524 kts | 97° |
| 2026-05-04 06:18 | 33.25073 | -97.35423 | 35044 ft | 517 kts | 81° |
| 2026-05-04 06:20 | 33.24766 | -97.00990 | 35048 ft | 522 kts | 91° |
| 2026-05-04 06:21 | 33.23565 | -96.79344 | 35066 ft | 520 kts | 91° |
| 2026-05-04 06:22 | 33.23096 | -96.70717 | 35061 ft | 520 kts | 91° |
| 2026-05-04 06:25 | 33.19483 | -96.10456 | 35076 ft | 519 kts | 92° |
| 2026-05-04 06:26 | 33.19032 | -96.03313 | 35072 ft | 519 kts | 92° |
| 2026-05-04 06:26 | 33.18477 | -95.94720 | 35069 ft | 519 kts | 92° |
| 2026-05-04 06:27 | 33.17091 | -95.73246 | 35063 ft | 519 kts | 92° |
| 2026-05-04 06:28 | 33.16512 | -95.64657 | 35075 ft | 520 kts | 92° |
| 2026-05-04 06:28 | 33.15961 | -95.56113 | 35096 ft | 520 kts | 92° |
| 2026-05-04 06:29 | 33.15402 | -95.47505 | 35092 ft | 519 kts | 92° |
| 2026-05-04 06:29 | 33.14825 | -95.38912 | 35083 ft | 519 kts | 92° |
| 2026-05-04 06:30 | 33.14235 | -95.30313 | 35081 ft | 520 kts | 92° |
| 2026-05-04 06:30 | 33.13640 | -95.21690 | 35079 ft | 521 kts | 92° |
| 2026-05-04 06:31 | 33.13035 | -95.13127 | 35084 ft | 521 kts | 92° |
| 2026-05-04 06:31 | 33.12409 | -95.04507 | 35090 ft | 521 kts | 92° |
| 2026-05-04 06:33 | 33.09919 | -94.69943 | 35077 ft | 524 kts | 92° |
| 2026-05-04 06:34 | 33.09269 | -94.61291 | 35060 ft | 524 kts | 92° |
| 2026-05-04 06:34 | 33.08628 | -94.52692 | 35065 ft | 524 kts | 92° |
| 2026-05-04 06:36 | 33.05981 | -94.18098 | 35078 ft | 523 kts | 92° |
| 2026-05-04 06:37 | 33.05297 | -94.09447 | 35069 ft | 524 kts | 92° |
| 2026-05-04 06:37 | 33.04617 | -94.00826 | 35069 ft | 525 kts | 92° |
| 2026-05-04 06:38 | 33.03929 | -93.92162 | 35067 ft | 524 kts | 92° |
| 2026-05-04 06:40 | 33.01097 | -93.57508 | 35071 ft | 526 kts | 92° |
| 2026-05-04 06:40 | 33.00371 | -93.48852 | 35067 ft | 526 kts | 92° |
| 2026-05-04 06:41 | 32.99648 | -93.40233 | 35078 ft | 525 kts | 92° |
| 2026-05-04 06:41 | 32.98911 | -93.31573 | 35081 ft | 526 kts | 92° |
| 2026-05-04 06:42 | 32.98173 | -93.22900 | 35080 ft | 525 kts | 92° |
| 2026-05-04 06:44 | 32.95159 | -92.88250 | 35092 ft | 526 kts | 92° |
| 2026-05-04 06:44 | 32.94389 | -92.79583 | 35091 ft | 526 kts | 92° |
| 2026-05-04 06:45 | 32.93613 | -92.70965 | 35091 ft | 526 kts | 92° |
| 2026-05-04 06:45 | 32.92832 | -92.62290 | 35100 ft | 526 kts | 92° |
| 2026-05-04 06:46 | 32.92065 | -92.53614 | 35095 ft | 526 kts | 92° |
| 2026-05-04 06:46 | 32.91292 | -92.45011 | 35093 ft | 526 kts | 93° |
| 2026-05-04 06:48 | 32.88041 | -92.10407 | 35105 ft | 525 kts | 93° |
| 2026-05-04 06:50 | 32.84737 | -91.75940 | 35107 ft | 525 kts | 93° |
| 2026-05-04 06:51 | 32.83889 | -91.67319 | 35112 ft | 525 kts | 93° |
| 2026-05-04 06:51 | 32.83044 | -91.58684 | 35111 ft | 525 kts | 93° |
| 2026-05-04 06:52 | 32.82204 | -91.50069 | 35118 ft | 524 kts | 93° |
| 2026-05-04 06:52 | 32.81350 | -91.41523 | 35104 ft | 524 kts | 93° |
| 2026-05-04 06:53 | 32.80485 | -91.32920 | 35099 ft | 524 kts | 93° |
| 2026-05-04 06:53 | 32.79615 | -91.24321 | 35093 ft | 524 kts | 93° |
| 2026-05-04 06:54 | 32.78747 | -91.15715 | 35094 ft | 524 kts | 93° |
| 2026-05-04 06:54 | 32.77892 | -91.07137 | 35105 ft | 521 kts | 93° |
| 2026-05-04 06:55 | 32.77051 | -90.98580 | 35109 ft | 521 kts | 93° |
| 2026-05-04 06:55 | 32.76216 | -90.90025 | 35120 ft | 521 kts | 93° |
| 2026-05-04 06:57 | 32.72969 | -90.55936 | 35113 ft | 518 kts | 93° |
| 2026-05-04 06:58 | 32.72181 | -90.47426 | 35117 ft | 518 kts | 92° |
| 2026-05-04 06:58 | 32.71398 | -90.38912 | 35116 ft | 518 kts | 92° |
| 2026-05-04 06:59 | 32.70628 | -90.30433 | 35123 ft | 515 kts | 92° |
| 2026-05-04 06:59 | 32.69876 | -90.22033 | 35123 ft | 515 kts | 92° |
| 2026-05-04 07:01 | 32.66932 | -89.88284 | 35084 ft | 509 kts | 92° |
| 2026-05-04 07:02 | 32.66240 | -89.79971 | 35084 ft | 509 kts | 92° |
| 2026-05-04 07:02 | 32.65549 | -89.71596 | 35084 ft | 509 kts | 92° |
| 2026-05-04 07:03 | 32.64865 | -89.63217 | 35063 ft | 509 kts | 92° |
| 2026-05-04 07:03 | 32.64186 | -89.54844 | 35056 ft | 509 kts | 92° |
| 2026-05-04 07:04 | 32.63519 | -89.46533 | 35045 ft | 509 kts | 92° |
| 2026-05-04 07:04 | 32.62854 | -89.38174 | 35046 ft | 509 kts | 92° |
| 2026-05-04 07:05 | 32.62194 | -89.29821 | 35065 ft | 509 kts | 92° |
| 2026-05-04 07:05 | 32.61537 | -89.21453 | 35067 ft | 509 kts | 92° |
| 2026-05-04 07:06 | 32.60524 | -89.08903 | 35085 ft | 510 kts | 92° |
| 2026-05-04 07:07 | 32.59850 | -89.00540 | 35088 ft | 510 kts | 92° |
| 2026-05-04 07:09 | 32.57306 | -88.67250 | 35135 ft | 505 kts | 91° |
| 2026-05-04 07:09 | 32.56712 | -88.58952 | 35138 ft | 505 kts | 91° |
| 2026-05-04 07:10 | 32.56125 | -88.50656 | 35138 ft | 505 kts | 91° |
| 2026-05-04 07:12 | 32.53971 | -88.17664 | 35149 ft | 501 kts | 91° |
| 2026-05-04 07:12 | 32.53457 | -88.09474 | 35143 ft | 501 kts | 91° |
| 2026-05-04 07:13 | 32.52964 | -88.01267 | 35140 ft | 498 kts | 91° |
| 2026-05-04 07:13 | 32.52488 | -87.93070 | 35132 ft | 498 kts | 91° |
| 2026-05-04 07:14 | 32.51332 | -87.72655 | 35126 ft | 498 kts | 91° |
| 2026-05-04 07:15 | 32.50886 | -87.64476 | 35124 ft | 496 kts | 91° |
| 2026-05-04 07:15 | 32.50528 | -87.57703 | 35119 ft | 495 kts | 91° |
| 2026-05-04 07:16 | 32.50102 | -87.49549 | 35110 ft | 495 kts | 91° |
| 2026-05-04 07:16 | 32.49683 | -87.41404 | 35107 ft | 495 kts | 91° |
| 2026-05-04 07:17 | 32.49269 | -87.33264 | 35097 ft | 495 kts | 91° |
| 2026-05-04 07:17 | 32.48867 | -87.25142 | 35089 ft | 493 kts | 90° |
| 2026-05-04 07:18 | 32.48473 | -87.17026 | 35090 ft | 493 kts | 90° |
| 2026-05-04 07:18 | 32.48084 | -87.08919 | 35084 ft | 493 kts | 90° |
| 2026-05-04 07:19 | 32.47703 | -87.00855 | 35082 ft | 493 kts | 90° |
| 2026-05-04 07:19 | 32.47328 | -86.92746 | 35073 ft | 492 kts | 90° |
| 2026-05-04 07:20 | 32.46962 | -86.84658 | 35061 ft | 491 kts | 90° |
| 2026-05-04 07:20 | 32.46603 | -86.76566 | 35075 ft | 491 kts | 90° |
| 2026-05-04 07:22 | 32.45245 | -86.44330 | 35123 ft | 489 kts | 90° |
| 2026-05-04 07:23 | 32.44923 | -86.36281 | 35121 ft | 489 kts | 90° |
| 2026-05-04 07:23 | 32.44608 | -86.28245 | 35124 ft | 489 kts | 90° |
| 2026-05-04 07:24 | 32.44298 | -86.20178 | 35128 ft | 489 kts | 90° |
| 2026-05-04 07:24 | 32.43995 | -86.12145 | 35147 ft | 488 kts | 90° |
| 2026-05-04 07:26 | 32.42842 | -85.80103 | 35148 ft | 488 kts | 90° |
| 2026-05-04 07:27 | 32.42568 | -85.72087 | 35157 ft | 487 kts | 90° |
| 2026-05-04 07:27 | 32.42300 | -85.64064 | 35157 ft | 487 kts | 89° |
| 2026-05-04 07:28 | 32.42038 | -85.56035 | 35159 ft | 488 kts | 89° |
| 2026-05-04 07:28 | 32.41783 | -85.48022 | 35152 ft | 488 kts | 89° |
| 2026-05-04 07:29 | 32.41533 | -85.40004 | 35162 ft | 487 kts | 89° |
| 2026-05-04 07:29 | 32.41279 | -85.32014 | 35158 ft | 485 kts | 89° |
| 2026-05-04 07:30 | 32.41029 | -85.24024 | 35156 ft | 486 kts | 89° |
| 2026-05-04 07:30 | 32.40786 | -85.16085 | 35159 ft | 486 kts | 89° |
| 2026-05-04 07:31 | 32.40547 | -85.08092 | 35155 ft | 486 kts | 89° |
| 2026-05-04 07:33 | 32.39595 | -84.76194 | 35155 ft | 485 kts | 89° |
| 2026-05-04 07:33 | 32.39368 | -84.68225 | 35152 ft | 485 kts | 89° |
| 2026-05-04 07:34 | 32.39137 | -84.60259 | 35153 ft | 484 kts | 89° |
| 2026-05-04 07:34 | 32.38903 | -84.52340 | 35144 ft | 484 kts | 89° |
| 2026-05-04 07:35 | 32.38673 | -84.44384 | 35148 ft | 484 kts | 89° |
| 2026-05-04 07:35 | 32.38450 | -84.36418 | 35153 ft | 484 kts | 89° |
| 2026-05-04 07:36 | 32.38233 | -84.28455 | 35163 ft | 484 kts | 88° |
| 2026-05-04 07:38 | 32.37355 | -83.96743 | 35163 ft | 482 kts | 88° |
| 2026-05-04 07:38 | 32.37148 | -83.88803 | 35177 ft | 482 kts | 88° |
| 2026-05-04 07:39 | 32.36932 | -83.80888 | 35168 ft | 481 kts | 88° |
| 2026-05-04 07:39 | 32.36721 | -83.73025 | 35176 ft | 481 kts | 88° |
| 2026-05-04 07:40 | 32.36512 | -83.65100 | 35165 ft | 481 kts | 88° |
| 2026-05-04 07:40 | 32.36309 | -83.57188 | 35166 ft | 481 kts | 88° |
| 2026-05-04 07:41 | 32.36111 | -83.49274 | 35170 ft | 481 kts | 88° |
| 2026-05-04 07:41 | 32.35916 | -83.41346 | 35149 ft | 481 kts | 88° |
| 2026-05-04 07:42 | 32.35727 | -83.33444 | 35151 ft | 481 kts | 88° |
| 2026-05-04 07:42 | 32.35542 | -83.25542 | 35144 ft | 480 kts | 88° |
| 2026-05-04 07:43 | 32.35363 | -83.17648 | 35143 ft | 480 kts | 88° |
| 2026-05-04 07:43 | 32.35192 | -83.09808 | 35150 ft | 480 kts | 88° |
| 2026-05-04 07:44 | 32.35028 | -83.01912 | 35142 ft | 480 kts | 88° |
| 2026-05-04 07:44 | 32.34869 | -82.94021 | 35150 ft | 480 kts | 88° |
| 2026-05-04 07:45 | 32.34715 | -82.86138 | 35145 ft | 480 kts | 88° |
| 2026-05-04 07:45 | 32.34566 | -82.78250 | 35146 ft | 480 kts | 88° |
| 2026-05-04 07:46 | 32.34434 | -82.70375 | 35148 ft | 478 kts | 88° |
| 2026-05-04 07:46 | 32.34312 | -82.62498 | 35147 ft | 478 kts | 88° |
| 2026-05-04 07:47 | 32.34194 | -82.54634 | 35147 ft | 478 kts | 88° |
| 2026-05-04 07:49 | 32.33803 | -82.23246 | 35151 ft | 477 kts | 87° |
| 2026-05-04 07:49 | 32.33726 | -82.15398 | 35151 ft | 477 kts | 87° |
| 2026-05-04 07:50 | 32.33654 | -82.07552 | 35152 ft | 477 kts | 87° |
| 2026-05-04 07:50 | 32.33586 | -81.99757 | 35152 ft | 477 kts | 87° |
| 2026-05-04 07:51 | 32.33522 | -81.91912 | 35152 ft | 477 kts | 87° |
| 2026-05-04 07:51 | 32.33461 | -81.84070 | 35152 ft | 477 kts | 87° |
| 2026-05-04 07:52 | 32.33405 | -81.76228 | 35152 ft | 477 kts | 87° |
| 2026-05-04 07:52 | 32.33354 | -81.68389 | 35153 ft | 477 kts | 87° |
| 2026-05-04 07:54 | 32.33318 | -81.37041 | 35161 ft | 476 kts | 87° |
| 2026-05-04 07:55 | 32.33308 | -81.29217 | 35164 ft | 475 kts | 86° |
| 2026-05-04 07:55 | 32.33341 | -81.21378 | 35166 ft | 477 kts | 87° |
| 2026-05-04 07:56 | 32.33419 | -81.13576 | 35165 ft | 477 kts | 86° |
| 2026-05-04 07:56 | 32.33505 | -81.05736 | 35163 ft | 477 kts | 86° |
| 2026-05-04 07:57 | 32.33596 | -80.97885 | 35159 ft | 477 kts | 86° |
| 2026-05-04 07:57 | 32.33693 | -80.90044 | 35166 ft | 477 kts | 87° |
| 2026-05-04 07:58 | 32.33837 | -80.82221 | 35166 ft | 474 kts | 86° |
| 2026-05-04 07:58 | 32.34004 | -80.74421 | 35167 ft | 475 kts | 86° |
| 2026-05-04 07:59 | 32.34174 | -80.66668 | 35167 ft | 475 kts | 86° |
| 2026-05-04 07:59 | 32.34350 | -80.58856 | 35153 ft | 474 kts | 86° |
| 2026-05-04 08:00 | 32.34536 | -80.51060 | 35153 ft | 474 kts | 87° |
| 2026-05-04 08:02 | 32.35717 | -80.19977 | 35150 ft | 473 kts | 86° |
| 2026-05-04 08:02 | 32.36061 | -80.12188 | 35151 ft | 476 kts | 86° |
| 2026-05-04 08:03 | 32.36520 | -80.04350 | 35152 ft | 478 kts | 86° |
| 2026-05-04 08:03 | 32.36998 | -79.96503 | 35154 ft | 479 kts | 86° |
| 2026-05-04 08:04 | 32.37400 | -79.89965 | 35153 ft | 479 kts | 86° |
| 2026-05-04 08:04 | 32.37884 | -79.82108 | 35151 ft | 479 kts | 86° |
| 2026-05-04 08:05 | 32.38406 | -79.74226 | 35147 ft | 482 kts | 86° |
| 2026-05-04 08:05 | 32.39000 | -79.66355 | 35151 ft | 484 kts | 86° |
| 2026-05-04 08:06 | 32.39611 | -79.58424 | 35150 ft | 484 kts | 85° |
| 2026-05-04 08:06 | 32.40225 | -79.50481 | 35153 ft | 484 kts | 85° |
| 2026-05-04 08:08 | 32.42998 | -79.18547 | 35162 ft | 487 kts | 85° |
| 2026-05-04 08:11 | 32.46468 | -78.82579 | 35151 ft | 492 kts | 85° |
| 2026-05-04 08:11 | 32.47710 | -78.70554 | 35150 ft | 491 kts | 85° |
| 2026-05-04 08:12 | 32.48591 | -78.62476 | 35148 ft | 496 kts | 85° |
| 2026-05-04 08:12 | 32.49534 | -78.54418 | 35160 ft | 498 kts | 85° |
| 2026-05-04 08:13 | 32.50496 | -78.46282 | 35157 ft | 498 kts | 85° |
| 2026-05-04 08:13 | 32.51461 | -78.38157 | 35156 ft | 498 kts | 85° |
| 2026-05-04 08:14 | 32.52429 | -78.30032 | 35160 ft | 498 kts | 85° |
| 2026-05-04 08:16 | 32.56331 | -77.97582 | 35161 ft | 498 kts | 85° |
| 2026-05-04 08:16 | 32.57351 | -77.89446 | 35179 ft | 501 kts | 84° |
| 2026-05-04 08:17 | 32.58402 | -77.81271 | 35163 ft | 500 kts | 85° |
| 2026-05-04 08:17 | 32.59442 | -77.73173 | 35157 ft | 500 kts | 84° |
| 2026-05-04 08:19 | 32.63812 | -77.40474 | 35162 ft | 505 kts | 84° |
| 2026-05-04 08:20 | 32.64961 | -77.32257 | 35165 ft | 505 kts | 84° |
| 2026-05-04 08:20 | 32.66116 | -77.24027 | 35167 ft | 505 kts | 84° |
| 2026-05-04 08:21 | 32.67301 | -77.15783 | 35155 ft | 508 kts | 84° |
| 2026-05-04 08:21 | 32.68511 | -77.07566 | 35162 ft | 509 kts | 84° |
| 2026-05-04 08:22 | 32.69734 | -76.99294 | 35165 ft | 509 kts | 84° |
| 2026-05-04 08:24 | 32.74741 | -76.66084 | 35164 ft | 512 kts | 84° |
| 2026-05-04 08:24 | 32.76011 | -76.57808 | 35165 ft | 512 kts | 84° |
| 2026-05-04 08:25 | 32.77296 | -76.49464 | 35143 ft | 513 kts | 84° |
| 2026-05-04 08:25 | 32.78595 | -76.41101 | 35159 ft | 515 kts | 84° |
| 2026-05-04 08:27 | 32.83868 | -76.07638 | 35160 ft | 516 kts | 84° |
| 2026-05-04 08:28 | 32.85213 | -75.99227 | 35168 ft | 517 kts | 84° |
| 2026-05-04 08:28 | 32.86564 | -75.90814 | 35171 ft | 517 kts | 84° |
| 2026-05-04 08:29 | 32.87907 | -75.82473 | 35196 ft | 516 kts | 83° |
| 2026-05-04 08:31 | 32.93353 | -75.48859 | 35171 ft | 517 kts | 83° |
| 2026-05-04 08:33 | 32.98948 | -75.15158 | 35172 ft | 520 kts | 83° |
| 2026-05-04 08:35 | 33.04715 | -74.81269 | 35177 ft | 522 kts | 83° |
| 2026-05-04 08:35 | 33.06164 | -74.72788 | 35182 ft | 522 kts | 83° |
| 2026-05-04 08:37 | 33.11255 | -74.43162 | 35180 ft | 522 kts | 83° |
| 2026-05-04 08:38 | 33.12723 | -74.34677 | 35166 ft | 522 kts | 83° |
| 2026-05-04 08:38 | 33.14216 | -74.26170 | 35180 ft | 525 kts | 83° |
| 2026-05-04 08:40 | 33.20236 | -73.92105 | 35174 ft | 526 kts | 83° |
| 2026-05-04 08:41 | 33.21761 | -73.83556 | 35184 ft | 527 kts | 83° |
| 2026-05-04 08:41 | 33.23295 | -73.74982 | 35180 ft | 527 kts | 82° |
| 2026-05-04 08:42 | 33.24820 | -73.66476 | 35185 ft | 527 kts | 82° |
| 2026-05-04 08:42 | 33.26377 | -73.57881 | 35169 ft | 530 kts | 82° |
| 2026-05-04 08:43 | 33.27958 | -73.49257 | 35176 ft | 531 kts | 82° |
| 2026-05-04 08:43 | 33.29543 | -73.40627 | 35183 ft | 532 kts | 82° |
| 2026-05-04 08:44 | 33.31133 | -73.31988 | 35192 ft | 532 kts | 82° |
| 2026-05-04 08:46 | 33.37560 | -72.97382 | 35177 ft | 533 kts | 82° |
| 2026-05-04 08:46 | 33.39190 | -72.88686 | 35169 ft | 536 kts | 82° |
| 2026-05-04 08:47 | 33.40837 | -72.79959 | 35185 ft | 538 kts | 82° |
| 2026-05-04 08:47 | 33.42491 | -72.71225 | 35184 ft | 538 kts | 82° |
| 2026-05-04 08:48 | 33.44141 | -72.62539 | 35175 ft | 538 kts | 82° |
| 2026-05-04 08:48 | 33.45818 | -72.53784 | 35174 ft | 541 kts | 82° |
| 2026-05-04 08:49 | 33.47520 | -72.44977 | 35226 ft | 540 kts | 82° |
| 2026-05-04 08:50 | 33.53379 | -72.14373 | 35185 ft | 543 kts | 82° |
| 2026-05-04 08:51 | 33.55097 | -72.05546 | 35185 ft | 544 kts | 82° |
| 2026-05-04 08:51 | 33.56824 | -71.96701 | 35186 ft | 544 kts | 82° |
| 2026-05-04 08:52 | 33.58559 | -71.87856 | 35159 ft | 547 kts | 82° |
| 2026-05-04 08:52 | 33.60046 | -71.80444 | 35180 ft | 550 kts | 82° |
| 2026-05-04 08:54 | 33.67045 | -71.44961 | 35183 ft | 549 kts | 82° |
| 2026-05-04 08:55 | 33.68815 | -71.36036 | 35185 ft | 550 kts | 81° |
| 2026-05-04 08:55 | 33.70594 | -71.27091 | 35184 ft | 550 kts | 81° |
| 2026-05-04 09:01 | 33.89384 | -70.33026 | 35229 ft | 556 kts | 81° |
| 2026-05-04 09:01 | 33.91172 | -70.24049 | 35190 ft | 550 kts | 81° |
| 2026-05-04 09:02 | 33.92955 | -70.15058 | 35160 ft | 554 kts | 81° |
| 2026-05-04 09:02 | 33.94759 | -70.06005 | 35174 ft | 556 kts | 81° |
| 2026-05-04 09:03 | 33.96557 | -69.97006 | 35179 ft | 557 kts | 81° |
| 2026-05-04 09:03 | 33.98376 | -69.87924 | 35174 ft | 557 kts | 81° |
| 2026-05-04 09:04 | 34.00200 | -69.78836 | 35165 ft | 559 kts | 81° |
| 2026-05-04 09:04 | 34.02032 | -69.69720 | 35173 ft | 560 kts | 81° |
| 2026-05-04 09:05 | 34.03853 | -69.60618 | 35202 ft | 554 kts | 81° |
| 2026-05-04 09:05 | 34.05644 | -69.51575 | 35141 ft | 555 kts | 81° |
| 2026-05-04 09:06 | 34.07440 | -69.42541 | 35159 ft | 553 kts | 81° |
| 2026-05-04 09:07 | 34.10281 | -69.14492 | 30454 ft | 464 kts | 128° |
| 2026-05-04 09:08 | 34.08567 | -69.11211 | 28712 ft | 462 kts | 139° |
| 2026-05-04 09:08 | 34.06444 | -69.08386 | 27115 ft | 458 kts | 147° |
| 2026-05-04 09:08 | 34.03998 | -69.05952 | 25596 ft | 454 kts | 154° |
| 2026-05-04 09:08 | 34.01350 | -69.03919 | 24188 ft | 449 kts | 159° |
| 2026-05-04 09:09 | 33.98567 | -69.02241 | 22663 ft | 444 kts | 164° |
| 2026-05-04 09:09 | 33.95716 | -69.00884 | 21132 ft | 438 kts | 168° |
| 2026-05-04 09:09 | 33.92822 | -68.99804 | 19707 ft | 432 kts | 171° |
| 2026-05-04 09:09 | 33.89920 | -68.98972 | 18304 ft | 426 kts | 174° |
| 2026-05-04 09:10 | 33.87020 | -68.98350 | 16775 ft | 421 kts | 176° |
| 2026-05-04 09:10 | 33.84136 | -68.97914 | 15320 ft | 416 kts | 179° |
| 2026-05-04 09:10 | 33.81246 | -68.97637 | 13925 ft | 416 kts | 180° |
| 2026-05-04 09:10 | 33.78352 | -68.97495 | 12445 ft | 418 kts | 182° |
| 2026-05-04 09:11 | 33.75462 | -68.97477 | 11632 ft | 407 kts | 184° |
| 2026-05-04 09:11 | 33.72710 | -68.97552 | 10909 ft | 385 kts | 185° |
| 2026-05-04 09:11 | 33.70080 | -68.97705 | 9895 ft | 374 kts | 186° |
| 2026-05-04 09:11 | 33.67490 | -68.97930 | 8505 ft | 372 kts | 187° |
| 2026-05-04 09:12 | 33.64905 | -68.98215 | 7087 ft | 373 kts | 187° |
| 2026-05-04 09:12 | 33.62355 | -68.98547 | 5703 ft | 374 kts | 188° |
| 2026-05-04 09:14 | 33.45643 | -69.01486 | 10 ft | 277 kts | 191° |
| 2026-05-04 09:14 | 33.43826 | -69.01878 | 10 ft | 254 kts | 192° |
| 2026-05-04 09:14 | 33.42164 | -69.02250 | 9 ft | 233 kts | 192° |
| 2026-05-04 09:14 | 33.40623 | -69.02600 | 13 ft | 218 kts | 192° |
| 2026-05-04 09:15 | 33.39181 | -69.02932 | 16 ft | 204 kts | 193° |
| 2026-05-04 09:15 | 33.37828 | -69.03253 | 9 ft | 192 kts | 193° |
| 2026-05-04 09:15 | 33.36552 | -69.03564 | 9 ft | 182 kts | 193° |
| 2026-05-04 09:15 | 33.35355 | -69.03865 | 10 ft | 156 kts | 198° |
| 2026-05-04 09:17 | 33.36973 | -69.01587 | 7 ft | 52 kts | 39° |
| 2026-05-04 09:18 | 33.37207 | -69.01261 | 7 ft | 52 kts | 41° |
| 2026-05-04 09:18 | 33.37440 | -69.00932 | 7 ft | 52 kts | 39° |
| 2026-05-04 09:18 | 33.37673 | -69.00603 | 7 ft | 52 kts | 42° |
| 2026-05-04 09:18 | 33.37906 | -69.00271 | 7 ft | 52 kts | 40° |
| 2026-05-04 09:19 | 33.38137 | -68.99938 | 7 ft | 52 kts | 39° |
| 2026-05-04 09:19 | 33.38369 | -68.99609 | 7 ft | 52 kts | 39° |
| 2026-05-04 09:19 | 33.38597 | -68.99281 | 7 ft | 52 kts | 41° |
| 2026-05-04 09:19 | 33.38826 | -68.98948 | 7 ft | 51 kts | 44° |
| 2026-05-04 09:20 | 33.39049 | -68.98608 | 7 ft | 52 kts | 42° |
| 2026-05-04 09:20 | 33.39271 | -68.98269 | 7 ft | 52 kts | 42° |
| 2026-05-04 09:20 | 33.39494 | -68.97927 | 7 ft | 52 kts | 41° |
| 2026-05-04 09:20 | 33.39717 | -68.97586 | 7 ft | 52 kts | 43° |
| 2026-05-04 09:21 | 33.39937 | -68.97244 | 7 ft | 52 kts | 41° |
| 2026-05-04 09:21 | 33.40156 | -68.96902 | 7 ft | 52 kts | 44° |
| 2026-05-04 09:21 | 33.40376 | -68.96560 | 7 ft | 52 kts | 45° |
| 2026-05-04 09:21 | 33.40596 | -68.96217 | 7 ft | 52 kts | 44° |
| 2026-05-04 09:22 | 33.40817 | -68.95875 | 7 ft | 52 kts | 43° |
| 2026-05-04 09:22 | 33.41036 | -68.95531 | 7 ft | 52 kts | 41° |
| 2026-05-04 09:22 | 33.41254 | -68.95195 | 7 ft | 52 kts | 44° |
| 2026-05-04 09:22 | 33.41477 | -68.94854 | 7 ft | 52 kts | 42° |
| 2026-05-04 09:23 | 33.41698 | -68.94516 | 7 ft | 51 kts | 45° |
| 2026-05-04 09:23 | 33.41917 | -68.94174 | 7 ft | 52 kts | 43° |
| 2026-05-04 09:23 | 33.42135 | -68.93830 | 7 ft | 52 kts | 45° |
| 2026-05-04 09:23 | 33.42351 | -68.93485 | 7 ft | 52 kts | 45° |
| 2026-05-04 09:25 | 33.43819 | -68.91031 | 7 ft | 52 kts | 45° |
| 2026-05-04 09:25 | 33.44023 | -68.90681 | 7 ft | 52 kts | 45° |
| 2026-05-04 09:26 | 33.44228 | -68.90326 | 7 ft | 52 kts | 45° |
| 2026-05-04 09:26 | 33.44433 | -68.89971 | 7 ft | 52 kts | 46° |
| 2026-05-04 09:26 | 33.44638 | -68.89617 | 7 ft | 52 kts | 47° |
| 2026-05-04 09:26 | 33.44843 | -68.89261 | 7 ft | 52 kts | 46° |
| 2026-05-04 09:27 | 33.45049 | -68.88907 | 7 ft | 52 kts | 45° |
| 2026-05-04 09:27 | 33.45258 | -68.88553 | 7 ft | 52 kts | 45° |
| 2026-05-04 09:27 | 33.45463 | -68.88198 | 7 ft | 52 kts | 47° |
| 2026-05-04 09:27 | 33.45668 | -68.87842 | 7 ft | 52 kts | 45° |